createdAt,value
2018-06-19T00:05:04.181Z,101452.78
2018-06-19T00:10:06.514Z,101449.15
2018-06-19T00:15:15.786Z,101452.88
2018-06-19T00:20:18.111Z,101451.08
2018-06-19T00:25:20.554Z,101448.24
2018-06-19T00:30:23.232Z,101452.56
2018-06-19T00:35:27.362Z,101449.32
2018-06-19T00:40:31.161Z,101447.27
2018-06-19T00:45:35.554Z,101451.23
2018-06-19T00:50:39.408Z,101441.53
2018-06-19T00:55:41.558Z,101444.58
2018-06-19T01:00:43.792Z,101438.89
2018-06-19T01:05:45.956Z,101445.23
2018-06-19T01:10:49.479Z,101443.04
2018-06-19T01:15:53.812Z,101429.91
2018-06-19T01:20:56.084Z,101429.89
2018-06-19T01:25:58.235Z,101434.02
2018-06-19T01:31:00.504Z,101426.00
2018-06-19T01:36:02.686Z,101419.05
2018-06-19T01:41:04.942Z,101414.85
2018-06-19T01:46:07.109Z,101417.89
2018-06-19T01:51:09.242Z,101412.81
2018-06-19T01:56:11.429Z,101409.25
2018-06-19T02:01:13.609Z,101403.78
2018-06-19T02:06:15.737Z,101394.42
2018-06-19T02:11:17.859Z,101397.41
2018-06-19T02:16:19.989Z,101405.45
2018-06-19T02:21:22.123Z,101410.31
2018-06-19T02:26:24.291Z,101413.14
2018-06-19T02:31:26.464Z,101405.63
2018-06-19T02:36:28.623Z,101404.47
2018-06-19T02:41:30.740Z,101406.52
2018-06-19T02:46:32.872Z,101390.02
2018-06-19T02:51:34.985Z,101386.14
2018-06-19T02:56:37.164Z,101397.92
2018-06-19T03:01:39.397Z,101389.97
2018-06-19T03:06:41.525Z,101407.35
2018-06-19T03:11:43.644Z,101407.98
2018-06-19T03:16:45.797Z,101414.51
2018-06-19T03:21:47.948Z,101417.80
2018-06-19T03:26:50.081Z,101408.92
2018-06-19T03:31:52.247Z,101412.05
2018-06-19T03:36:54.405Z,101416.84
2018-06-19T03:41:56.536Z,101413.89
2018-06-19T03:46:58.696Z,101419.23
2018-06-19T03:52:01.588Z,101430.48
2018-06-19T03:57:03.799Z,101433.52
2018-06-19T04:02:05.927Z,101435.23
2018-06-19T04:12:17.617Z,101435.54
2018-06-19T04:17:26.952Z,101426.03
2018-06-19T04:22:29.424Z,101418.80
2018-06-19T04:27:31.546Z,101433.34
2018-06-19T04:32:33.733Z,101422.45
2018-06-19T04:37:35.918Z,101421.81
2018-06-19T04:42:38.042Z,101412.29
2018-06-19T04:47:40.192Z,101415.36
2018-06-19T04:52:42.369Z,101408.97
2018-06-19T04:57:45.087Z,101411.81
2018-06-19T05:02:47.223Z,101405.30
2018-06-19T05:07:50.127Z,101398.80
2018-06-19T05:12:52.300Z,101398.36
2018-06-19T05:17:54.827Z,101410.09
2018-06-19T05:22:56.998Z,101416.05
2018-06-19T05:27:59.137Z,101429.72
2018-06-19T05:33:01.343Z,101422.86
2018-06-19T05:38:03.515Z,101433.59
2018-06-19T05:43:05.703Z,101437.61
2018-06-19T05:48:07.836Z,101460.10
2018-06-19T05:53:10.000Z,101458.58
2018-06-19T05:58:12.118Z,101482.91
2018-06-19T06:03:14.667Z,101460.84
2018-06-19T06:08:16.823Z,101465.72
2018-06-19T06:13:19.090Z,101472.67
2018-06-19T06:18:21.263Z,101481.25
2018-06-19T06:23:23.410Z,101487.25
2018-06-19T06:28:25.548Z,101494.86
2018-06-19T06:33:27.756Z,101497.84
2018-06-19T06:38:29.945Z,101497.70
2018-06-19T06:43:32.806Z,101496.74
2018-06-19T06:58:14.987Z,101518.64
2018-06-19T07:03:17.187Z,101514.74
2018-06-19T07:08:19.340Z,101516.15
2018-06-19T07:13:21.501Z,101521.81
2018-06-19T07:18:23.680Z,101526.45
2018-06-19T07:23:25.870Z,101527.70
2018-06-19T07:28:29.695Z,101536.34
2018-06-19T07:33:31.891Z,101540.73
2018-06-19T07:38:34.187Z,101540.23
2018-06-19T07:43:36.351Z,101557.96
2018-06-19T07:48:38.499Z,101575.73
2018-06-19T07:53:40.647Z,101582.84
2018-06-19T07:58:42.785Z,101594.38
2018-06-19T08:03:44.976Z,101587.53
2018-06-19T08:08:47.274Z,101593.83
2018-06-19T08:13:49.454Z,101601.09
2018-06-19T08:18:51.691Z,101600.06
2018-06-19T08:23:53.804Z,101613.23
2018-06-19T08:28:55.954Z,101626.08
2018-06-19T08:33:58.115Z,101637.69
2018-06-19T08:39:00.255Z,101636.67
2018-06-19T08:44:02.626Z,101641.25
2018-06-19T08:49:05.131Z,101637.59
2018-06-19T08:54:07.303Z,101644.83
2018-06-19T08:59:09.462Z,101642.27
2018-06-19T09:04:11.648Z,101643.44
2018-06-19T09:09:13.806Z,101640.13
2018-06-19T09:14:15.954Z,101655.97
2018-06-19T09:19:18.078Z,101663.22
2018-06-19T09:24:20.234Z,101660.41
2018-06-19T09:29:22.374Z,101668.13
2018-06-19T09:34:24.690Z,101671.43
2018-06-19T09:39:26.850Z,101663.39
2018-06-19T09:44:28.994Z,101655.81
2018-06-19T09:49:31.119Z,101653.67
2018-06-19T09:54:34.115Z,101651.09
2018-06-19T09:59:36.347Z,101642.42
2018-06-19T10:04:38.835Z,101651.23
2018-06-19T10:09:40.987Z,101650.69
2018-06-19T10:14:43.164Z,101650.39
2018-06-19T10:19:45.474Z,101651.94
2018-06-19T10:24:47.662Z,101646.40
2018-06-19T10:29:49.820Z,101631.45
2018-06-19T10:34:52.065Z,101639.87
2018-06-19T10:39:54.258Z,101642.18
2018-06-19T10:44:56.439Z,101650.04
2018-06-19T10:49:58.582Z,101646.75
2018-06-19T10:55:00.781Z,101648.17
2018-06-19T11:00:02.993Z,101658.95
2018-06-19T11:05:05.580Z,101664.44
2018-06-19T11:10:07.715Z,101675.23
2018-06-19T11:15:09.881Z,101681.24
2018-06-19T11:20:12.031Z,101670.95
2018-06-19T11:25:14.172Z,101681.36
2018-06-19T11:30:16.395Z,101686.35
2018-06-19T11:35:18.687Z,101684.30
2018-06-19T11:40:20.879Z,101674.91
2018-06-19T11:45:23.060Z,101686.91
2018-06-19T11:50:25.242Z,101692.73
2018-06-19T11:55:27.418Z,101697.11
2018-06-19T12:00:29.702Z,101699.66
2018-06-19T12:05:31.851Z,101694.78
2018-06-19T12:10:34.034Z,101700.12
2018-06-19T12:15:36.195Z,101694.13
2018-06-19T12:20:38.317Z,101705.48
2018-06-19T12:25:40.508Z,101704.70
2018-06-19T12:30:42.685Z,101705.35
2018-06-19T12:35:44.919Z,101716.98
2018-06-19T12:40:47.103Z,101725.47
2018-06-19T12:45:49.271Z,101722.09
2018-06-19T12:54:02.702Z,101735.36
2018-06-19T12:59:04.864Z,101737.78
2018-06-19T13:04:18.456Z,101726.36
2018-06-19T13:09:20.595Z,101741.19
2018-06-19T13:14:40.302Z,101739.60
2018-06-19T13:19:53.797Z,101724.00
2018-06-19T13:24:55.959Z,101735.94
2018-06-19T13:30:10.582Z,101737.05
2018-06-19T13:35:12.751Z,101743.80
2018-06-19T13:41:25.931Z,101762.92
2018-06-19T13:46:28.123Z,101775.17
2018-06-19T13:51:30.304Z,101774.06
2018-06-19T13:57:44.431Z,101790.88
2018-06-19T14:02:46.724Z,101792.64
2018-06-19T14:08:02.639Z,101789.87
2018-06-19T14:13:04.795Z,101796.37
2018-06-19T14:18:07.446Z,101798.67
2018-06-19T14:23:09.870Z,101797.95
2018-06-19T14:28:12.082Z,101810.73
2018-06-19T14:33:14.316Z,101786.02
2018-06-19T14:38:17.217Z,101799.32
2018-06-19T14:43:19.429Z,101803.18
2018-06-19T14:48:21.645Z,101813.83
2018-06-19T14:53:23.796Z,101806.30
2018-06-19T14:58:25.990Z,101817.47
2018-06-19T15:03:28.146Z,101814.14
2018-06-19T15:08:30.360Z,101815.42
2018-06-19T15:13:32.558Z,101826.51
2018-06-19T15:18:34.729Z,101820.65
2018-06-19T15:23:36.880Z,101817.30
2018-06-19T15:28:39.050Z,101821.02
2018-06-19T15:33:41.244Z,101820.06
2018-06-19T15:38:43.447Z,101833.05
2018-06-19T15:43:45.704Z,101807.70
2018-06-19T15:48:47.849Z,101831.95
2018-06-19T15:53:50.147Z,101821.62
2018-06-19T15:58:52.547Z,101839.84
2018-06-19T16:03:54.728Z,101848.06
2018-06-19T16:08:56.930Z,101842.49
2018-06-19T16:13:59.112Z,101846.34
2018-06-19T16:19:01.582Z,101852.34
2018-06-19T16:24:03.761Z,101860.77
2018-06-19T16:29:05.920Z,101851.06
2018-06-19T16:34:08.094Z,101861.35
2018-06-19T16:39:10.672Z,101860.34
2018-06-19T16:44:12.928Z,101858.64
2018-06-19T16:49:15.084Z,101853.64
2018-06-19T16:54:17.274Z,101856.53
2018-06-19T16:59:19.462Z,101851.86
2018-06-19T17:04:21.627Z,101851.66
2018-06-19T17:09:23.806Z,101858.72
2018-06-19T17:14:26.020Z,101851.45
2018-06-19T17:19:28.204Z,101860.95
2018-06-19T17:24:30.411Z,101867.48
2018-06-19T17:29:32.648Z,101867.92
2018-06-19T17:34:34.796Z,101864.59
2018-06-19T17:39:37.015Z,101868.23
2018-06-19T17:44:39.269Z,101878.61
2018-06-19T17:49:41.468Z,101879.34
2018-06-19T17:54:43.676Z,101880.36
2018-06-19T17:59:45.830Z,101883.69
2018-06-19T18:04:48.005Z,101884.13
2018-06-19T18:09:50.199Z,101890.03
2018-06-19T18:14:52.388Z,101898.24
2018-06-19T18:19:54.608Z,101894.03
2018-06-19T18:24:56.790Z,101894.53
2018-06-19T18:29:58.994Z,101902.56
2018-06-19T18:35:01.164Z,101906.92
2018-06-19T18:40:03.387Z,101908.44
2018-06-19T18:45:05.606Z,101915.34
2018-06-19T18:50:07.804Z,101896.58
2018-06-19T18:55:10.105Z,101896.88
2018-06-19T19:00:12.304Z,101900.98
2018-06-19T19:05:14.585Z,101899.45
2018-06-19T19:10:22.430Z,101908.25
2018-06-19T19:15:30.428Z,101905.02
2018-06-19T19:20:32.646Z,101916.12
2018-06-19T19:25:34.871Z,101914.20
2018-06-19T19:30:37.081Z,101920.67
2018-06-19T19:35:39.315Z,101921.22
2018-06-19T19:40:41.517Z,101929.98
2018-06-19T19:45:43.739Z,101929.92
2018-06-19T19:50:46.362Z,101934.94
2018-06-19T19:55:54.583Z,101936.25
2018-06-19T20:00:56.935Z,101943.92
2018-06-19T20:05:59.414Z,101949.13
2018-06-19T20:11:01.814Z,101960.78
2018-06-19T20:16:04.318Z,101961.23
2018-06-19T20:21:06.640Z,101978.44
2018-06-19T20:26:08.993Z,101982.66
2018-06-19T20:31:11.581Z,101980.08
2018-06-19T20:36:14.134Z,101979.74
2018-06-19T20:41:16.767Z,101982.56
2018-06-19T20:46:19.300Z,101985.31
2018-06-19T20:51:21.751Z,101986.18
2018-06-19T20:56:23.997Z,101991.59
2018-06-19T21:01:26.179Z,101987.44
2018-06-19T21:06:28.380Z,101985.33
2018-06-19T21:11:31.162Z,101983.72
2018-06-19T21:16:33.363Z,101991.67
2018-06-19T21:21:35.540Z,101982.27
2018-06-19T21:26:37.933Z,101974.64
2018-06-19T21:31:40.136Z,101970.19
2018-06-19T21:36:42.365Z,101972.84
2018-06-19T21:41:44.532Z,101971.37
2018-06-19T21:46:46.741Z,101975.41
2018-06-19T21:51:48.902Z,101971.73
2018-06-19T21:56:51.079Z,101971.22
2018-06-19T22:01:53.534Z,101978.79
2018-06-19T22:06:55.730Z,101978.79
2018-06-19T22:11:57.883Z,101973.69
2018-06-19T22:17:00.036Z,101975.97
2018-06-19T22:22:02.186Z,101967.34
2018-06-19T22:27:04.339Z,101972.02
2018-06-19T22:32:06.515Z,101966.98
2018-06-19T22:37:08.728Z,101965.44
2018-06-19T22:42:10.896Z,101962.68
2018-06-19T22:47:13.198Z,101958.47
2018-06-19T22:52:15.363Z,101965.80
2018-06-19T22:57:17.496Z,101957.10
2018-06-19T23:02:19.628Z,101965.09
2018-06-19T23:07:21.759Z,101963.68
2018-06-19T23:12:23.980Z,101963.55
2018-06-19T23:17:26.137Z,101948.58
2018-06-19T23:22:28.334Z,101943.36
2018-06-19T23:27:30.466Z,101942.61
2018-06-19T23:32:32.606Z,101944.15
2018-06-19T23:37:34.874Z,101944.41
2018-06-19T23:42:37.007Z,101943.28
2018-06-19T23:47:39.168Z,101944.91
2018-06-19T23:52:41.303Z,101935.30
2018-06-19T23:57:43.418Z,101942.09
